Time;durP1;ratioP1;P1;durP2;ratioP2;P2;SDS_P1;SDS_P2;PMS_P1;PMS_P2;Temp;Humidity;BMP_temperature;BMP_pressure;BME280_temperature;BME280_humidity;BME280_pressure;Samples;Min_cycle;Max_cycle;Signal;HPM_P1;HPM_P2
2023/04/13 00:02:02;;;;;;;12.48;5.38;;;;;;;5.09;77.63;99900.75;7393988;19;20003;-59
2023/04/13 00:04:30;;;;;;;11.60;5.45;;;;;;;5.20;77.33;99901.78;7394918;19;20014;-59
2023/04/13 00:06:57;;;;;;;11.30;5.35;;;;;;;5.10;77.40;99891.09;7392643;19;19995;-59
2023/04/13 00:09:24;;;;;;;11.45;5.63;;;;;;;5.03;77.86;99888.06;7395493;19;20107;-59
2023/04/13 00:11:50;;;;;;;11.65;5.40;;;;;;;4.92;77.96;99874.84;7395001;19;20058;-59
2023/04/13 00:14:17;;;;;;;10.60;5.88;;;;;;;5.01;77.51;99882.06;7395570;19;20441;-60
2023/04/13 00:16:45;;;;;;;9.65;5.53;;;;;;;4.96;77.51;99868.41;7392471;19;20336;-61
2023/04/13 00:19:11;;;;;;;13.07;5.72;;;;;;;4.94;77.68;99862.38;7394725;19;20002;-60
2023/04/13 00:21:40;;;;;;;12.10;5.47;;;;;;;4.98;77.20;99855.97;7393177;19;20054;-60
2023/04/13 00:24:07;;;;;;;12.27;5.18;;;;;;;4.91;77.69;99857.38;7395221;19;20022;-60
2023/04/13 00:26:32;;;;;;;10.82;4.68;;;;;;;4.88;77.50;99854.97;7392666;19;19995;-60
2023/04/13 00:28:58;;;;;;;9.30;4.80;;;;;;;4.88;77.61;99854.97;7393986;19;20462;-60
2023/04/13 00:31:23;;;;;;;10.50;5.20;;;;;;;4.84;77.71;99858.78;7394750;19;20018;-59
2023/04/13 00:33:49;;;;;;;13.95;5.50;;;;;;;4.86;77.53;99864.75;7394450;19;20343;-59
2023/04/13 00:36:15;;;;;;;14.13;5.32;;;;;;;4.82;77.53;99847.50;7390771;19;20026;-59
2023/04/13 00:38:43;;;;;;;13.95;5.32;;;;;;;4.90;77.38;99852.22;7392162;19;20009;-59
2023/04/13 00:41:11;;;;;;;11.95;5.97;;;;;;;4.84;77.56;99848.25;7393750;19;20002;-59
2023/04/13 00:43:38;;;;;;;9.75;5.10;;;;;;;4.83;77.52;99846.56;7393329;19;20115;-59
2023/04/13 00:46:04;;;;;;;13.43;5.70;;;;;;;4.89;77.10;99840.84;7392067;19;20491;-58
2023/04/13 00:48:30;;;;;;;12.90;5.30;;;;;;;4.92;77.00;99832.72;7392921;19;20007;-59
2023/04/13 00:51:02;;;;;;;13.27;5.07;;;;;;;4.90;76.86;99836.41;7391960;19;20026;-58
2023/04/13 00:53:29;;;;;;;9.70;5.13;;;;;;;4.81;77.16;99837.94;7393101;19;20601;-58
2023/04/13 00:55:55;;;;;;;10.88;4.97;;;;;;;4.88;76.96;99830.44;7392194;19;20019;-58
2023/04/13 00:58:21;;;;;;;10.45;5.20;;;;;;;4.87;76.86;99826.09;7393076;19;20358;-59
2023/04/13 01:00:47;;;;;;;12.70;5.07;;;;;;;4.86;76.71;99822.63;7393475;19;19999;-59
2023/04/13 01:03:12;;;;;;;13.88;5.25;;;;;;;4.88;76.71;99819.91;7393296;19;20095;-59
2023/04/13 01:06:12;;;;;;;11.13;5.05;;;;;;;4.82;76.87;99826.44;7391687;19;20053;-59
2023/04/13 01:08:45;;;;;;;11.30;4.95;;;;;;;4.74;77.47;99828.81;7393642;19;20002;-60
2023/04/13 01:11:26;;;;;;;10.52;5.32;;;;;;;4.79;76.77;99824.03;7392812;19;20095;-60
2023/04/13 01:14:22;;;;;;;11.68;5.07;;;;;;;4.77;77.09;99820.69;7393762;19;20001;-60
2023/04/13 01:16:56;;;;;;;9.77;4.97;;;;;;;4.73;77.45;99813.97;7391495;19;19998;-61
2023/04/13 01:19:27;;;;;;;;;;;;;;;4.64;77.57;99817.25;7392715;19;20032;-61
2023/04/13 01:21:53;;;;;;;12.38;5.75;;;;;;;4.78;77.32;99809.22;7392622;19;19914;-61
2023/04/13 01:24:28;;;;;;;11.07;5.35;;;;;;;4.84;76.95;99817.50;7393360;19;20454;-61
2023/04/13 01:27:30;;;;;;;11.02;5.43;;;;;;;4.73;77.15;99799.03;7390009;19;19998;-60
2023/04/13 01:29:57;;;;;;;11.30;5.20;;;;;;;4.88;76.82;99807.59;7392154;19;19994;-60
2023/04/13 01:32:22;;;;;;;10.35;5.55;;;;;;;4.94;76.89;99798.38;7392273;19;20011;-61
2023/04/13 01:34:49;;;;;;;11.02;5.35;;;;;;;4.90;76.67;99796.94;7391612;19;20349;-60
2023/04/13 01:37:16;;;;;;;11.00;5.70;;;;;;;4.83;76.80;99791.31;7392590;19;20002;-60
2023/04/13 01:39:41;;;;;;;10.55;5.55;;;;;;;4.88;76.63;99788.34;7392485;19;19994;-60
2023/04/13 01:42:07;;;;;;;10.20;5.35;;;;;;;4.84;76.59;99793.81;7391613;19;19993;-61
2023/04/13 01:44:33;;;;;;;10.57;5.45;;;;;;;4.79;76.56;99792.47;7391342;19;20018;-61
2023/04/13 01:47:14;;;;;;;11.77;5.47;;;;;;;4.71;76.86;99790.41;7389873;19;20014;-61
2023/04/13 01:49:51;;;;;;;10.30;5.47;;;;;;;4.82;76.67;99789.63;7391187;19;20020;-60
2023/04/13 01:52:17;;;;;;;9.98;5.05;;;;;;;4.88;76.33;99796.22;7392457;19;20010;-60
2023/04/13 01:54:46;;;;;;;11.60;5.47;;;;;;;4.74;76.56;99794.59;7391764;19;20087;-60
2023/04/13 01:57:13;;;;;;;11.18;5.53;;;;;;;4.80;75.94;99788.91;7391161;19;20013;-61
2023/04/13 01:59:39;;;;;;;9.75;5.22;;;;;;;4.90;75.66;99781.16;7390035;19;20011;-61
2023/04/13 02:02:15;;;;;;;10.55;5.65;;;;;;;4.93;75.70;99786.19;7389427;19;20016;-61
2023/04/13 02:04:41;;;;;;;10.15;4.80;;;;;;;4.91;75.56;99786.31;7389294;19;20014;-60
2023/04/13 02:07:07;;;;;;;10.00;5.18;;;;;;;4.95;75.57;99785.13;7391555;19;20023;-61
2023/04/13 02:09:34;;;;;;;11.88;5.57;;;;;;;4.97;75.82;99785.00;7391539;19;20007;-61
2023/04/13 02:11:59;;;;;;;11.02;5.90;;;;;;;4.93;75.71;99783.56;7391720;19;20010;-61
2023/04/13 02:14:26;;;;;;;13.07;5.90;;;;;;;4.88;75.82;99788.34;7389104;19;20013;-61
2023/04/13 02:16:51;;;;;;;10.20;5.80;;;;;;;4.78;75.87;99790.78;7389880;19;19995;-61
2023/04/13 02:19:17;;;;;;;13.00;6.75;;;;;;;4.73;76.39;99782.41;7390327;19;19999;-61
2023/04/13 02:21:42;;;;;;;11.90;6.22;;;;;;;4.72;76.61;99797.34;7390790;19;20071;-61
2023/04/13 02:24:08;;;;;;;11.57;6.25;;;;;;;4.81;76.15;99795.84;7391606;19;20010;-61
2023/04/13 02:26:36;;;;;;;12.35;6.32;;;;;;;4.85;75.70;99786.75;7387531;19;20030;-62
2023/04/13 02:29:01;;;;;;;12.43;6.05;;;;;;;4.73;76.09;99793.75;7390431;19;20010;-60
2023/04/13 02:31:30;;;;;;;11.52;6.28;;;;;;;4.82;75.97;99794.88;7391215;19;20003;-60
2023/04/13 02:33:56;;;;;;;13.32;6.05;;;;;;;4.78;76.23;99796.06;7390687;19;20034;-60
2023/04/13 02:36:23;;;;;;;12.48;5.85;;;;;;;4.84;75.95;99793.81;7389582;19;20003;-61
2023/04/13 02:38:49;;;;;;;12.50;6.28;;;;;;;4.79;76.06;99779.31;7390992;19;19999;-60
2023/04/13 02:41:15;;;;;;;12.48;6.18;;;;;;;4.76;76.52;99779.56;7391346;19;20023;-60
2023/04/13 02:43:40;;;;;;;12.18;6.10;;;;;;;4.73;76.16;99777.16;7390337;19;20006;-60
2023/04/13 02:46:07;;;;;;;11.00;5.95;;;;;;;4.82;76.43;99779.91;7388762;19;20312;-61
2023/04/13 02:48:33;;;;;;;14.73;6.55;;;;;;;4.96;75.65;99781.53;7390038;19;20002;-60
2023/04/13 02:50:58;;;;;;;14.13;6.40;;;;;;;4.91;75.76;99775.78;7389732;19;20023;-60
2023/04/13 02:53:24;;;;;;;15.48;6.47;;;;;;;4.76;76.49;99780.38;7389503;19;20001;-60
2023/04/13 02:55:51;;;;;;;13.27;6.57;;;;;;;4.87;75.94;99782.25;7388376;19;19999;-60
2023/04/13 02:58:20;;;;;;;11.75;6.40;;;;;;;4.89;76.04;99782.13;7387837;19;20467;-60
2023/04/13 03:00:47;;;;;;;11.15;6.32;;;;;;;4.96;76.13;99778.91;7390116;19;20002;-60
2023/04/13 03:03:12;;;;;;;11.80;5.80;;;;;;;4.90;76.19;99776.72;7388509;19;19999;-60
2023/04/13 03:05:39;;;;;;;12.77;6.50;;;;;;;4.91;76.21;99783.69;7388802;19;20394;-60
2023/04/13 03:08:05;;;;;;;10.25;5.82;;;;;;;4.87;76.04;99769.06;7389459;19;20011;-60
2023/04/13 03:10:30;;;;;;;10.55;5.65;;;;;;;4.92;75.73;99781.88;7389019;19;20066;-61
2023/04/13 03:12:56;;;;;;;10.55;5.80;;;;;;;4.82;75.90;99779.91;7395305;19;20006;-61
2023/04/13 03:15:22;;;;;;;11.52;5.03;;;;;;;4.87;75.54;99776.97;7393998;19;20525;-60
2023/04/13 03:17:48;;;;;;;9.25;4.95;;;;;;;4.91;75.59;99777.59;7397096;19;20011;-60
2023/04/13 03:20:15;;;;;;;12.43;4.78;;;;;;;5.10;74.99;99777.91;7395183;19;19998;-60
2023/04/13 03:22:42;;;;;;;10.20;4.97;;;;;;;5.06;74.75;99773.81;7395250;19;20010;-61
2023/04/13 03:25:08;;;;;;;10.13;4.65;;;;;;;5.11;75.08;99768.19;7394756;19;20009;-61
2023/04/13 03:27:35;;;;;;;10.98;4.90;;;;;;;5.05;75.32;99770.31;7396451;19;20108;-60
2023/04/13 03:30:02;;;;;;;11.48;4.85;;;;;;;5.02;75.30;99778.47;7397154;19;20030;-60
2023/04/13 03:32:28;;;;;;;10.18;4.40;;;;;;;5.07;75.49;99778.94;7397305;19;20001;-60
2023/04/13 03:34:54;;;;;;;10.88;5.10;;;;;;;5.16;75.10;99776.56;7395935;19;20331;-60
2023/04/13 03:37:20;;;;;;;9.30;4.95;;;;;;;5.05;75.17;99770.31;7396036;19;20030;-60
2023/04/13 03:39:45;;;;;;;9.07;4.00;;;;;;;5.13;74.85;99767.09;7395845;19;20002;-60
2023/04/13 03:42:11;;;;;;;10.23;4.57;;;;;;;5.10;74.64;99764.72;7392850;19;19994;-60
2023/04/13 03:44:36;;;;;;;7.70;4.07;;;;;;;4.95;74.85;99766.72;7394307;19;20013;-60
2023/04/13 03:47:02;;;;;;;7.65;4.10;;;;;;;5.02;75.19;99769.69;7394985;19;20017;-61
2023/04/13 03:49:29;;;;;;;9.90;4.63;;;;;;;5.06;75.48;99769.38;7395004;19;20002;-60
2023/04/13 03:51:55;;;;;;;13.20;5.00;;;;;;;5.17;74.83;99770.34;7396795;19;20051;-60
2023/04/13 03:54:21;;;;;;;7.75;4.25;;;;;;;5.25;74.55;99770.59;7393704;19;20438;-60
2023/04/13 03:56:47;;;;;;;9.63;4.15;;;;;;;5.15;74.98;99773.13;7394167;19;20059;-61
2023/04/13 03:59:12;;;;;;;7.07;3.83;;;;;;;5.15;74.94;99761.75;7395899;19;20058;-60
2023/04/13 04:01:38;;;;;;;9.90;4.20;;;;;;;5.17;75.29;99772.97;7395272;19;20006;-60
2023/04/13 04:04:03;;;;;;;10.55;4.15;;;;;;;5.14;75.35;99763.53;7395831;19;20010;-61
2023/04/13 04:06:30;;;;;;;8.50;3.90;;;;;;;5.12;75.91;99759.34;7391890;19;20002;-61
2023/04/13 04:08:55;;;;;;;7.60;3.60;;;;;;;5.19;75.97;99761.38;7395205;19;20019;-61
2023/04/13 04:11:21;;;;;;;7.95;3.70;;;;;;;5.26;75.78;99762.59;7394610;19;19995;-61
2023/04/13 04:13:46;;;;;;;7.88;3.80;;;;;;;5.27;76.14;99759.00;7395442;19;20066;-61
2023/04/13 04:16:12;;;;;;;8.07;3.80;;;;;;;5.32;76.19;99762.13;7393024;19;20036;-61
2023/04/13 04:18:38;;;;;;;10.77;3.45;;;;;;;5.33;76.23;99750.66;7394669;19;20002;-60
2023/04/13 04:21:05;;;;;;;8.38;3.33;;;;;;;5.38;76.33;99757.38;7395154;19;20078;-60
2023/04/13 04:23:33;;;;;;;8.77;3.28;;;;;;;5.23;76.29;99760.19;7393301;19;20095;-61
2023/04/13 04:26:01;;;;;;;9.25;3.45;;;;;;;5.28;76.65;99757.22;7393773;19;20010;-60
2023/04/13 04:28:29;;;;;;;8.52;3.33;;;;;;;5.29;76.66;99745.75;7394873;19;20006;-61
2023/04/13 04:31:00;;;;;;;7.47;3.20;;;;;;;5.35;76.73;99752.31;7394712;19;20575;-60
2023/04/13 04:33:26;;;;;;;5.88;2.97;;;;;;;5.35;76.71;99749.69;7394367;19;20351;-60
2023/04/13 04:35:52;;;;;;;5.60;3.35;;;;;;;5.37;77.25;99753.06;7393220;19;19995;-60
2023/04/13 04:38:20;;;;;;;6.60;3.40;;;;;;;5.35;77.32;99747.06;7395239;19;20007;-60
2023/04/13 04:40:49;;;;;;;6.88;3.10;;;;;;;5.35;77.69;99747.06;7394438;19;20002;-60
2023/04/13 04:43:15;;;;;;;10.32;3.30;;;;;;;5.40;77.42;99748.38;7392813;19;19990;-60
2023/04/13 04:45:42;;;;;;;5.93;2.90;;;;;;;5.44;77.14;99746.34;7392247;19;20023;-60
2023/04/13 04:48:12;;;;;;;7.40;3.00;;;;;;;5.47;77.24;99738.22;7390928;19;20014;-60
2023/04/13 04:50:38;;;;;;;4.95;2.40;;;;;;;5.45;76.75;99746.25;7393597;19;20006;-60
2023/04/13 04:53:05;;;;;;;6.32;2.45;;;;;;;5.57;76.49;99742.66;7392983;19;20002;-60
2023/04/13 04:55:31;;;;;;;5.40;2.40;;;;;;;5.58;76.44;99738.22;7393153;19;20010;-60
2023/04/13 04:57:56;;;;;;;5.72;2.35;;;;;;;5.45;76.57;99754.16;7392462;19;20009;-60
2023/04/13 05:00:25;;;;;;;7.20;2.40;;;;;;;5.43;76.74;99753.41;7393844;19;20007;-60
2023/04/13 05:02:51;;;;;;;6.82;2.22;;;;;;;5.44;76.66;99751.59;7391851;19;20018;-60
2023/04/13 05:05:17;;;;;;;6.80;2.20;;;;;;;5.43;76.99;99766.56;7392345;19;20006;-59
2023/04/13 05:07:43;;;;;;;8.20;2.20;;;;;;;5.45;76.85;99748.03;7393706;19;20010;-59
2023/04/13 05:10:09;;;;;;;5.43;1.80;;;;;;;5.57;76.68;99755.00;7392431;19;20007;-60
2023/04/13 05:12:35;;;;;;;7.85;2.15;;;;;;;5.59;76.71;99753.06;7391496;19;20010;-59
2023/04/13 05:15:01;;;;;;;9.40;2.20;;;;;;;5.57;77.09;99753.19;7393003;19;20058;-59
2023/04/13 05:17:27;;;;;;;4.43;1.88;;;;;;;5.70;76.47;99757.50;7392785;19;20096;-59
2023/04/13 05:19:53;;;;;;;4.15;2.00;;;;;;;5.62;76.82;99749.34;7392338;19;20440;-59
2023/04/13 05:22:20;;;;;;;5.13;1.92;;;;;;;5.66;77.08;99758.69;7391785;19;19997;-59
2023/04/13 05:24:45;;;;;;;4.10;1.70;;;;;;;5.75;76.96;99758.00;7390196;19;20492;-61
2023/04/13 05:27:12;;;;;;;4.72;1.80;;;;;;;5.77;76.73;99770.06;7393266;19;20006;-59
2023/04/13 05:29:39;;;;;;;5.30;1.73;;;;;;;5.73;76.98;99776.53;7392170;19;20012;-60
2023/04/13 05:32:04;;;;;;;5.25;1.70;;;;;;;5.51;77.52;99771.25;7393307;19;20015;-59
2023/04/13 05:34:31;;;;;;;4.93;1.95;;;;;;;5.59;77.91;99774.13;7391418;19;20036;-61
2023/04/13 05:36:57;;;;;;;5.35;1.83;;;;;;;5.71;77.33;99772.38;7387130;19;20070;-62
2023/04/13 05:39:23;;;;;;;6.57;2.10;;;;;;;5.81;77.28;99775.94;7391703;19;20006;-59
2023/04/13 05:41:48;;;;;;;7.63;2.35;;;;;;;5.82;77.29;99777.63;7391258;19;20010;-59
2023/04/13 05:44:14;;;;;;;4.43;1.80;;;;;;;5.75;77.65;99784.34;7390562;19;20010;-59
2023/04/13 05:46:39;;;;;;;4.88;1.90;;;;;;;5.64;77.79;99798.34;7388684;19;20380;-60
2023/04/13 05:49:05;;;;;;;6.38;2.30;;;;;;;5.64;77.72;99787.81;7392300;19;19998;-60
2023/04/13 05:51:31;;;;;;;7.18;1.85;;;;;;;5.63;78.07;99785.28;7391954;19;20435;-61
2023/04/13 05:53:57;;;;;;;4.60;1.65;;;;;;;5.62;78.55;99788.88;7391798;19;19998;-61
2023/04/13 05:56:24;;;;;;;4.50;1.90;;;;;;;5.65;78.13;99804.47;7389592;19;20490;-60
2023/04/13 05:58:51;;;;;;;6.32;1.90;;;;;;;5.79;77.86;99805.06;7391157;19;20005;-60
2023/04/13 06:01:18;;;;;;;6.45;2.00;;;;;;;5.68;78.43;99806.88;7391245;19;19999;-59
2023/04/13 06:03:45;;;;;;;5.10;1.80;;;;;;;5.67;78.54;99813.94;7392811;19;20014;-60
2023/04/13 06:06:11;;;;;;;5.53;2.00;;;;;;;5.76;78.04;99812.38;7390355;19;20002;-61
2023/04/13 06:08:38;;;;;;;6.85;1.90;;;;;;;5.76;78.07;99810.56;7391360;19;20130;-60
2023/04/13 06:11:05;;;;;;;4.68;1.70;;;;;;;5.91;77.78;99811.19;7392334;19;20041;-61
2023/04/13 06:13:31;;;;;;;5.45;1.90;;;;;;;5.84;78.36;99812.63;7389942;19;20007;-60
2023/04/13 06:15:57;;;;;;;5.15;1.67;;;;;;;5.73;78.54;99816.06;7390092;19;20002;-60
2023/04/13 06:18:25;;;;;;;7.18;2.00;;;;;;;5.75;78.71;99818.63;7390548;19;19994;-60
2023/04/13 06:20:51;;;;;;;4.18;1.80;;;;;;;5.70;79.04;99826.84;7390873;19;20343;-60
2023/04/13 06:23:16;;;;;;;5.20;1.92;;;;;;;5.71;79.28;99819.81;7388997;19;20003;-60
2023/04/13 06:25:42;;;;;;;6.15;1.88;;;;;;;5.86;78.89;99821.25;7389534;19;20446;-60
2023/04/13 06:28:07;;;;;;;5.35;1.83;;;;;;;6.10;78.29;99825.56;7390807;19;20413;-60
2023/04/13 06:30:33;;;;;;;6.65;2.00;;;;;;;6.10;77.87;99831.69;7390629;19;20007;-61
2023/04/13 06:32:59;;;;;;;4.40;1.70;;;;;;;5.98;78.50;99832.66;7390800;19;19995;-58
2023/04/13 06:35:24;;;;;;;6.85;1.70;;;;;;;5.99;78.39;99829.03;7389551;19;20003;-61
2023/04/13 06:37:50;;;;;;;6.47;1.55;;;;;;;6.11;78.25;99837.78;7390739;19;19999;-61
2023/04/13 06:40:16;;;;;;;6.05;1.80;;;;;;;6.28;77.69;99843.44;7390475;19;20001;-60
2023/04/13 06:42:42;;;;;;;6.13;2.15;;;;;;;6.37;77.34;99841.88;7390165;19;19999;-60
2023/04/13 06:45:10;;;;;;;5.28;2.00;;;;;;;6.53;76.68;99846.78;7390600;19;20026;-60
2023/04/13 06:47:38;;;;;;;6.57;1.88;;;;;;;6.63;76.94;99846.91;7393088;19;20514;-59
2023/04/13 06:50:05;;;;;;;6.63;2.03;;;;;;;6.51;77.32;99849.56;7397688;19;20014;-60
2023/04/13 06:52:40;;;;;;;5.93;1.92;;;;;;;6.60;76.92;99849.78;7397612;19;20003;-61
2023/04/13 06:55:06;;;;;;;4.57;2.00;;;;;;;6.36;77.38;99857.81;7396604;19;20081;-61
2023/04/13 06:57:32;;;;;;;5.20;2.10;;;;;;;6.36;77.73;99857.81;7397419;19;19991;-59
2023/04/13 06:59:58;;;;;;;5.05;1.88;;;;;;;6.50;77.44;99866.31;7397031;19;19994;-60
2023/04/13 07:02:24;;;;;;;5.15;2.10;;;;;;;6.63;77.29;99879.41;7396330;19;20005;-60
2023/04/13 07:04:50;;;;;;;5.05;2.33;;;;;;;6.65;77.16;99869.53;7396334;19;20070;-60
2023/04/13 07:07:15;;;;;;;4.20;2.33;;;;;;;6.73;77.58;99879.47;7395456;19;20019;-60
2023/04/13 07:09:41;;;;;;;4.93;2.30;;;;;;;6.89;76.55;99872.03;7397494;19;20489;-59
2023/04/13 07:12:07;;;;;;;8.13;2.25;;;;;;;6.91;76.34;99870.09;7396715;19;20807;-60
2023/04/13 07:14:39;;;;;;;6.85;2.67;;;;;;;6.80;76.52;99880.69;7397137;19;20068;-59
2023/04/13 07:17:05;;;;;;;7.38;2.90;;;;;;;6.73;76.84;99876.84;7397555;19;20002;-59
2023/04/13 07:19:32;;;;;;;3.63;2.33;;;;;;;6.74;76.82;99881.19;7396375;19;20335;-60
2023/04/13 07:21:59;;;;;;;6.40;2.50;;;;;;;6.70;76.98;99882.38;7395762;19;20364;-60
2023/04/13 07:24:26;;;;;;;6.47;2.20;;;;;;;6.85;76.57;99886.41;7397065;19;20315;-61
2023/04/13 07:26:53;;;;;;;6.47;2.70;;;;;;;6.95;76.07;99887.34;7394967;19;20078;-60
2023/04/13 07:29:25;;;;;;;5.20;2.70;;;;;;;7.02;75.84;99885.91;7396641;19;19998;-60
2023/04/13 07:31:51;;;;;;;6.75;2.83;;;;;;;7.07;75.43;99890.81;7396139;19;20478;-60
2023/04/13 07:34:17;;;;;;;6.18;2.60;;;;;;;7.36;74.03;99906.09;7395756;19;20036;-60
2023/04/13 07:36:43;;;;;;;6.20;2.47;;;;;;;7.42;73.90;99910.84;7393762;19;20062;-60
2023/04/13 07:39:10;;;;;;;6.68;2.40;;;;;;;7.53;73.49;99906.34;7396624;19;20316;-60
2023/04/13 07:41:36;;;;;;;4.78;2.60;;;;;;;7.53;73.28;99913.44;7395504;19;20078;-60
2023/04/13 07:44:03;;;;;;;6.30;2.50;;;;;;;7.23;73.71;99916.81;7396794;19;20023;-60
2023/04/13 07:46:29;;;;;;;7.00;2.70;;;;;;;7.40;73.10;99918.91;7394389;19;20002;-60
2023/04/13 07:48:55;;;;;;;5.43;2.50;;;;;;;7.63;72.13;99924.09;7392610;19;20024;-61
2023/04/13 07:51:21;;;;;;;6.75;2.63;;;;;;;7.51;72.79;99929.44;7396277;19;20018;-60
2023/04/13 07:53:47;;;;;;;5.22;2.60;;;;;;;7.47;72.42;99930.66;7396218;19;20119;-59
2023/04/13 07:56:13;;;;;;;4.78;2.50;;;;;;;7.38;71.33;99957.81;7394253;19;20055;-60
2023/04/13 07:58:39;;;;;;;6.80;2.40;;;;;;;7.40;70.69;99947.16;7392294;19;20462;-61
2023/04/13 08:01:05;;;;;;;6.00;2.22;;;;;;;7.36;70.65;99959.78;7396854;19;20011;-61
2023/04/13 08:03:32;;;;;;;7.30;2.30;;;;;;;7.44;70.57;99959.97;7395909;19;20008;-59
2023/04/13 08:05:57;;;;;;;7.85;2.50;;;;;;;7.48;70.91;99961.41;7393495;19;20040;-61
2023/04/13 08:08:23;;;;;;;8.70;2.65;;;;;;;7.86;69.38;99961.84;7395611;19;19995;-60
2023/04/13 08:10:49;;;;;;;6.88;2.42;;;;;;;8.04;68.56;99967.41;7395831;19;20022;-61
2023/04/13 08:13:15;;;;;;;5.90;2.63;;;;;;;8.21;67.78;99966.81;7395180;19;19999;-60
2023/04/13 08:15:41;;;;;;;7.82;3.00;;;;;;;8.31;68.21;99969.56;7393974;19;20018;-60
2023/04/13 08:18:07;;;;;;;8.85;2.80;;;;;;;8.60;67.73;99975.81;7395150;19;19995;-60
2023/04/13 08:20:35;;;;;;;4.85;2.28;;;;;;;8.58;67.92;99991.00;7394455;19;20013;-60
2023/04/13 08:23:01;;;;;;;5.85;2.55;;;;;;;8.40;67.73;99987.28;7392751;19;20018;-59
2023/04/13 08:25:27;;;;;;;8.93;2.90;;;;;;;8.23;67.35;99986.88;7391945;19;19999;-59
2023/04/13 08:27:53;;;;;;;6.75;2.97;;;;;;;8.07;68.52;99990.94;7395523;19;19999;-60
2023/04/13 08:30:19;;;;;;;9.43;2.75;;;;;;;8.53;67.47;99997.66;7394086;19;20111;-60
2023/04/13 08:32:45;;;;;;;8.00;2.60;;;;;;;8.37;67.49;99996.31;7394165;19;19999;-59
2023/04/13 08:35:11;;;;;;;11.13;3.40;;;;;;;8.18;68.32;100004.94;7393335;19;19995;-59
2023/04/13 08:37:38;;;;;;;11.18;3.33;;;;;;;8.12;67.09;100005.47;7394612;19;20118;-60
2023/04/13 08:40:06;;;;;;;6.65;3.08;;;;;;;8.21;66.81;100007.34;7394294;19;20010;-59
2023/04/13 08:42:36;;;;;;;7.25;2.88;;;;;;;8.34;66.45;100019.56;7393693;19;20070;-60
2023/04/13 08:45:02;;;;;;;8.98;2.78;;;;;;;8.23;66.95;100016.00;7393175;19;20002;-59
2023/04/13 08:47:28;;;;;;;5.55;2.70;;;;;;;8.29;67.01;100014.66;7392807;19;20006;-60
2023/04/13 08:50:01;;;;;;;6.75;2.72;;;;;;;8.65;65.64;100015.16;7393345;19;20030;-60
2023/04/13 08:52:28;;;;;;;6.65;2.70;;;;;;;8.78;65.74;100029.00;7392897;19;20481;-60
2023/04/13 08:54:59;;;;;;;6.53;3.00;;;;;;;8.76;65.74;100033.63;7393902;19;20002;-61
2023/04/13 08:57:26;;;;;;;6.50;3.00;;;;;;;8.56;65.56;100035.28;7393747;19;20030;-62
2023/04/13 08:59:52;;;;;;;6.10;2.47;;;;;;;8.61;65.84;100037.56;7393097;19;20006;-62
2023/04/13 09:02:27;;;;;;;7.10;2.65;;;;;;;8.66;65.20;100043.31;7391943;19;20017;-62
2023/04/13 09:04:59;;;;;;;6.47;2.55;;;;;;;8.77;65.30;100045.03;7394043;19;20010;-62
2023/04/13 09:07:28;;;;;;;7.72;2.22;;;;;;;8.86;64.59;100037.13;7394514;19;20466;-61
2023/04/13 09:09:58;;;;;;;6.95;2.17;;;;;;;8.78;65.46;100041.41;7392169;19;20488;-61
2023/04/13 09:12:32;;;;;;;6.50;2.13;;;;;;;8.72;64.83;100053.34;7393406;19;20011;-61
2023/04/13 09:14:58;;;;;;;5.72;2.10;;;;;;;8.77;64.77;100048.53;7393980;19;20463;-61
2023/04/13 09:17:28;;;;;;;6.05;1.92;;;;;;;8.64;65.61;100053.19;7391183;19;20002;-61
2023/04/13 09:20:22;;;;;;;5.47;2.10;;;;;;;8.68;65.52;100057.25;7392707;19;20073;-61
2023/04/13 09:22:50;;;;;;;6.20;2.30;;;;;;;8.80;65.26;100058.84;7390405;19;20467;-60
2023/04/13 09:25:26;;;;;;;5.00;2.10;;;;;;;8.97;63.48;100054.75;7393428;19;20468;-60
2023/04/13 09:27:52;;;;;;;9.35;2.28;;;;;;;8.85;63.51;100058.47;7392695;19;19998;-61
2023/04/13 09:30:20;;;;;;;6.40;2.28;;;;;;;8.62;63.52;100063.91;7390507;19;20022;-61
2023/04/13 09:32:46;;;;;;;6.18;2.05;;;;;;;8.57;63.81;100068.75;7392711;19;20022;-61
2023/04/13 09:35:12;;;;;;;8.05;2.17;;;;;;;8.44;64.31;100070.75;7392356;19;20013;-61
2023/04/13 09:37:40;;;;;;;7.57;2.10;;;;;;;8.70;63.83;100079.16;7392673;19;20010;-61
2023/04/13 09:40:14;;;;;;;4.85;2.20;;;;;;;8.91;62.88;100071.16;7390975;19;20206;-62
2023/04/13 09:42:41;;;;;;;5.68;1.88;;;;;;;9.13;62.63;100088.69;7390688;19;20006;-61
2023/04/13 09:45:08;;;;;;;4.57;2.00;;;;;;;9.15;62.37;100084.13;7392011;19;20007;-61
2023/04/13 09:47:37;;;;;;;5.78;1.77;;;;;;;9.14;62.68;100074.47;7390707;19;20066;-62
2023/04/13 09:50:04;;;;;;;6.18;2.20;;;;;;;9.33;62.11;100086.94;7390332;19;19999;-62
2023/04/13 09:52:30;;;;;;;6.57;2.08;;;;;;;9.36;61.84;100100.78;7388089;19;20451;-59
2023/04/13 09:54:57;;;;;;;5.10;2.05;;;;;;;9.39;61.95;100095.22;7394761;19;19994;-61
2023/04/13 09:57:27;;;;;;;4.90;1.77;;;;;;;9.18;62.26;100100.59;7392128;19;19999;-60
2023/04/13 09:59:54;;;;;;;4.68;1.70;;;;;;;9.18;62.04;100107.69;7391074;19;19995;-61
2023/04/13 10:02:20;;;;;;;6.38;1.83;;;;;;;9.38;61.31;100109.44;7390704;19;20463;-61
2023/04/13 10:04:46;;;;;;;4.90;1.67;;;;;;;9.69;60.37;100112.88;7389027;19;20013;-61
2023/04/13 10:07:12;;;;;;;6.55;2.20;;;;;;;9.57;60.76;100098.06;7391546;19;19990;-60
2023/04/13 10:09:38;;;;;;;5.68;2.25;;;;;;;9.44;59.99;100105.41;7390709;19;20017;-60
2023/04/13 10:12:09;;;;;;;5.65;2.20;;;;;;;9.40;60.30;100110.13;7390483;19;20003;-60
2023/04/13 10:14:38;;;;;;;5.95;2.10;;;;;;;9.26;60.78;100113.19;7391005;19;20006;-60
2023/04/13 10:17:10;;;;;;;4.80;2.05;;;;;;;9.07;60.67;100118.38;7388409;19;19999;-60
2023/04/13 10:19:43;;;;;;;5.78;2.20;;;;;;;9.12;60.44;100117.00;7390782;19;20110;-59
2023/04/13 10:22:10;;;;;;;8.25;2.40;;;;;;;9.19;60.33;100120.81;7393344;19;20419;-62
2023/04/13 10:24:38;;;;;;;4.63;1.85;;;;;;;9.28;59.61;100121.81;7398941;19;19994;-60
2023/04/13 10:27:12;;;;;;;5.60;1.80;;;;;;;9.53;58.53;100130.28;7396540;19;20005;-60
2023/04/13 10:29:38;;;;;;;4.43;2.03;;;;;;;9.32;58.79;100138.28;7396792;19;20012;-61
2023/04/13 10:32:04;;;;;;;5.70;2.17;;;;;;;9.27;59.18;100129.91;7398755;19;20075;-60
2023/04/13 10:34:33;;;;;;;7.28;2.15;;;;;;;9.48;59.00;100135.97;7398150;19;20018;-61
2023/04/13 10:37:02;;;;;;;5.18;2.30;;;;;;;9.63;58.45;100129.31;7394938;19;20026;-61
2023/04/13 10:39:33;;;;;;;5.00;1.98;;;;;;;9.73;58.58;100139.97;7397444;19;20070;-60
2023/04/13 10:42:02;;;;;;;5.97;2.10;;;;;;;9.67;58.36;100146.66;7396231;19;20734;-60
2023/04/13 10:44:43;;;;;;;5.65;2.00;;;;;;;9.57;58.58;100155.56;7397687;19;20002;-61
2023/04/13 10:47:10;;;;;;;6.82;2.28;;;;;;;9.54;59.07;100147.88;7397100;19;19995;-62
2023/04/13 10:49:35;;;;;;;7.50;2.70;;;;;;;9.55;59.19;100149.53;7396721;19;20006;-59
2023/04/13 10:52:01;;;;;;;5.90;2.40;;;;;;;9.50;59.31;100149.97;7397651;19;19998;-59
2023/04/13 10:54:29;;;;;;;6.13;2.30;;;;;;;9.84;59.09;100150.50;7396937;19;20005;-60
2023/04/13 10:56:59;;;;;;;6.00;2.30;;;;;;;10.08;58.93;100155.44;7392793;19;19999;-61
2023/04/13 10:59:40;;;;;;;4.97;2.10;;;;;;;9.61;59.77;100156.97;7395028;19;20003;-61
2023/04/13 11:02:12;;;;;;;7.53;2.35;;;;;;;9.70;61.16;100158.81;7394371;19;20395;-60
2023/04/13 11:04:40;;;;;;;6.05;2.20;;;;;;;9.75;60.66;100161.88;7396659;19;20025;-62
2023/04/13 11:07:11;;;;;;;4.22;2.20;;;;;;;9.96;60.18;100159.19;7394979;19;19995;-61
2023/04/13 11:09:37;;;;;;;6.55;2.50;;;;;;;9.90;59.37;100168.53;7395205;19;20501;-61
2023/04/13 11:12:06;;;;;;;3.25;1.88;;;;;;;10.11;58.35;100170.25;7396167;19;20009;-61
2023/04/13 11:14:34;;;;;;;5.45;2.10;;;;;;;9.99;58.67;100184.63;7396194;19;19998;-61
2023/04/13 11:17:01;;;;;;;3.60;1.95;;;;;;;9.80;59.70;100188.88;7392135;19;20050;-62
2023/04/13 11:19:26;;;;;;;6.40;1.80;;;;;;;9.78;60.69;100190.81;7394744;19;20475;-60
2023/04/13 11:21:56;;;;;;;4.70;2.08;;;;;;;10.13;60.15;100202.78;7393408;19;20005;-62
2023/04/13 11:24:32;;;;;;;4.68;1.67;;;;;;;9.99;60.06;100195.25;7393724;19;20022;-62
2023/04/13 11:26:58;;;;;;;3.58;1.85;;;;;;;9.67;61.12;100206.81;7391001;19;20486;-61
2023/04/13 11:29:24;;;;;;;3.83;1.50;;;;;;;9.53;60.88;100213.34;7396731;19;20012;-60
2023/04/13 11:31:50;;;;;;;6.47;1.90;;;;;;;9.72;59.78;100207.28;7396761;19;20032;-62
2023/04/13 11:34:25;;;;;;;3.85;1.48;;;;;;;10.06;58.59;100210.47;7396219;19;19999;-60
2023/04/13 11:37:01;;;;;;;5.75;2.70;;;;;;;10.15;58.46;100214.13;7390947;19;19998;-61
2023/04/13 11:39:27;;;;;;;5.63;2.20;;;;;;;10.13;58.74;100213.41;7395399;19;20081;-62